sensor_id;sensor_type;location;lat;lon;timestamp;pressure;altitude;pressure_sealevel;temperature;humidity
59337;BME280;45115;52.002;4.686;2023-07-13T05:32:57;101474.09;;;22.28;72.29
59337;BME280;45115;52.002;4.686;2023-07-13T05:35:24;101475.13;;;23.02;70.16
59337;BME280;45115;52.002;4.686;2023-07-13T05:37:51;101478.91;;;22.81;69.83
59337;BME280;45115;52.002;4.686;2023-07-13T05:40:18;101481.47;;;23.76;67.35
59337;BME280;45115;52.002;4.686;2023-07-13T05:42:45;101478.91;;;22.81;68.55
59337;BME280;45115;52.002;4.686;2023-07-13T05:45:11;101489.09;;;21.93;72.06
59337;BME280;45115;52.002;4.686;2023-07-13T05:47:38;101488.91;;;21.94;73.71
59337;BME280;45115;52.002;4.686;2023-07-13T05:50:08;101502.69;;;22.30;71.38
59337;BME280;45115;52.002;4.686;2023-07-13T05:52:34;101489.44;;;22.45;71.63
59337;BME280;45115;52.002;4.686;2023-07-13T05:55:01;101489.50;;;22.99;68.33
59337;BME280;45115;52.002;4.686;2023-07-13T05:57:30;101491.91;;;21.93;71.55
59337;BME280;45115;52.002;4.686;2023-07-13T05:59:57;101508.53;;;21.59;73.24
59337;BME280;45115;52.002;4.686;2023-07-13T06:02:24;101504.31;;;22.52;70.75
59337;BME280;45115;52.002;4.686;2023-07-13T06:04:51;101500.72;;;23.12;68.89
59337;BME280;45115;52.002;4.686;2023-07-13T06:07:19;101499.38;;;24.01;65.24
59337;BME280;45115;52.002;4.686;2023-07-13T06:09:46;101510.75;;;23.73;64.13
59337;BME280;45115;52.002;4.686;2023-07-13T06:12:13;101512.50;;;22.94;66.74
59337;BME280;45115;52.002;4.686;2023-07-13T06:14:40;101515.38;;;21.56;71.53
59337;BME280;45115;52.002;4.686;2023-07-13T06:17:07;101523.03;;;20.47;69.57
59337;BME280;45115;52.002;4.686;2023-07-13T06:19:34;101526.00;;;19.79;68.80
59337;BME280;45115;52.002;4.686;2023-07-13T06:22:01;101537.72;;;18.99;73.58
59337;BME280;45115;52.002;4.686;2023-07-13T06:24:30;101539.56;;;18.76;75.61
59337;BME280;45115;52.002;4.686;2023-07-13T06:26:56;101539.44;;;18.61;77.70
59337;BME280;45115;52.002;4.686;2023-07-13T06:29:23;101545.78;;;18.47;81.40
59337;BME280;45115;52.002;4.686;2023-07-13T06:31:50;101548.03;;;18.36;83.97
59337;BME280;45115;52.002;4.686;2023-07-13T06:34:17;101542.50;;;18.20;85.11
59337;BME280;45115;52.002;4.686;2023-07-13T06:36:44;101543.81;;;17.93;83.76
59337;BME280;45115;52.002;4.686;2023-07-13T06:39:11;101546.72;;;18.00;83.96
59337;BME280;45115;52.002;4.686;2023-07-13T06:41:39;101545.69;;;18.09;84.77
59337;BME280;45115;52.002;4.686;2023-07-13T06:44:09;101555.25;;;18.61;84.53
59337;BME280;45115;52.002;4.686;2023-07-13T06:46:36;101548.44;;;19.02;82.51
59337;BME280;45115;52.002;4.686;2023-07-13T06:49:03;101552.63;;;19.29;77.07
59337;BME280;45115;52.002;4.686;2023-07-13T06:51:30;101558.91;;;19.31;78.55
59337;BME280;45115;52.002;4.686;2023-07-13T06:53:57;101551.25;;;19.25;79.34
59337;BME280;45115;52.002;4.686;2023-07-13T06:56:24;101558.75;;;18.93;81.50
59337;BME280;45115;52.002;4.686;2023-07-13T06:58:52;101570.03;;;18.53;85.30
59337;BME280;45115;52.002;4.686;2023-07-13T07:01:19;101564.72;;;18.12;87.54
59337;BME280;45115;52.002;4.686;2023-07-13T07:03:45;101563.38;;;17.83;88.80
59337;BME280;45115;52.002;4.686;2023-07-13T07:06:15;101558.56;;;17.61;89.84
59337;BME280;45115;52.002;4.686;2023-07-13T07:08:43;101549.19;;;17.62;91.15
59337;BME280;45115;52.002;4.686;2023-07-13T07:11:12;101567.06;;;18.55;90.50
59337;BME280;45115;52.002;4.686;2023-07-13T07:13:40;101555.81;;;19.18;87.90
59337;BME280;45115;52.002;4.686;2023-07-13T07:16:08;101550.97;;;20.39;85.63
59337;BME280;45115;52.002;4.686;2023-07-13T07:18:36;101556.28;;;21.91;79.42
59337;BME280;45115;52.002;4.686;2023-07-13T07:21:03;101562.75;;;23.35;71.30
59337;BME280;45115;52.002;4.686;2023-07-13T07:23:30;101551.47;;;24.28;67.09
59337;BME280;45115;52.002;4.686;2023-07-13T07:25:57;101557.91;;;23.96;64.75
59337;BME280;45115;52.002;4.686;2023-07-13T07:28:23;101560.94;;;24.40;64.60
59337;BME280;45115;52.002;4.686;2023-07-13T07:30:53;101555.25;;;24.79;63.86
59337;BME280;45115;52.002;4.686;2023-07-13T07:33:21;101554.91;;;25.58;60.75
59337;BME280;45115;52.002;4.686;2023-07-13T07:35:49;101554.59;;;24.77;61.55
59337;BME280;45115;52.002;4.686;2023-07-13T07:38:16;101556.53;;;24.83;62.29
59337;BME280;45115;52.002;4.686;2023-07-13T07:40:43;101563.47;;;23.76;64.89
59337;BME280;45115;52.002;4.686;2023-07-13T07:43:11;101574.69;;;22.69;67.45
59337;BME280;45115;52.002;4.686;2023-07-13T07:45:39;101574.44;;;21.66;72.79
59337;BME280;45115;52.002;4.686;2023-07-13T07:48:07;101576.09;;;21.04;76.22
59337;BME280;45115;52.002;4.686;2023-07-13T07:50:36;101578.75;;;19.87;76.82
59337;BME280;45115;52.002;4.686;2023-07-13T07:53:04;101587.84;;;19.36;78.52
59337;BME280;45115;52.002;4.686;2023-07-13T07:55:33;101588.13;;;19.11;80.16
59337;BME280;45115;52.002;4.686;2023-07-13T07:58:01;101584.47;;;18.87;80.10
59337;BME280;45115;52.002;4.686;2023-07-13T08:00:28;101584.63;;;19.70;77.52
59337;BME280;45115;52.002;4.686;2023-07-13T08:02:58;101582.50;;;21.19;72.69
59337;BME280;45115;52.002;4.686;2023-07-13T08:05:25;101589.44;;;20.79;72.71
59337;BME280;45115;52.002;4.686;2023-07-13T08:07:54;101584.56;;;20.38;77.18
59337;BME280;45115;52.002;4.686;2023-07-13T08:10:21;101585.28;;;19.35;80.19
59337;BME280;45115;52.002;4.686;2023-07-13T08:12:48;101586.44;;;18.71;83.83
59337;BME280;45115;52.002;4.686;2023-07-13T08:15:16;101600.38;;;18.39;85.80
59337;BME280;45115;52.002;4.686;2023-07-13T08:17:43;101594.09;;;19.83;83.60
59337;BME280;45115;52.002;4.686;2023-07-13T08:20:10;101586.53;;;21.52;76.40
59337;BME280;45115;52.002;4.686;2023-07-13T08:22:37;101582.03;;;21.51;73.44
59337;BME280;45115;52.002;4.686;2023-07-13T08:25:07;101581.19;;;21.93;72.55
59337;BME280;45115;52.002;4.686;2023-07-13T08:27:34;101590.41;;;22.49;69.85
59337;BME280;45115;52.002;4.686;2023-07-13T08:30:00;101575.78;;;22.74;67.76
59337;BME280;45115;52.002;4.686;2023-07-13T08:32:27;101573.19;;;23.74;66.23
59337;BME280;45115;52.002;4.686;2023-07-13T08:34:54;101564.75;;;24.59;64.58
59337;BME280;45115;52.002;4.686;2023-07-13T08:37:21;101579.22;;;24.75;61.05
59337;BME280;45115;52.002;4.686;2023-07-13T08:39:49;101575.50;;;25.38;57.73
59337;BME280;45115;52.002;4.686;2023-07-13T08:42:26;101578.16;;;24.44;57.64
59337;BME280;45115;52.002;4.686;2023-07-13T08:45:03;101587.16;;;23.80;61.92
59337;BME280;45115;52.002;4.686;2023-07-13T08:47:35;101594.34;;;22.88;65.10
59337;BME280;45115;52.002;4.686;2023-07-13T08:50:05;101605.94;;;21.60;70.84
59337;BME280;45115;52.002;4.686;2023-07-13T08:52:35;101597.31;;;20.90;70.84
59337;BME280;45115;52.002;4.686;2023-07-13T08:55:09;101592.69;;;20.25;74.51
59337;BME280;45115;52.002;4.686;2023-07-13T08:57:41;101604.47;;;19.67;77.40
59337;BME280;45115;52.002;4.686;2023-07-13T09:00:10;101607.69;;;19.25;79.70
59337;BME280;45115;52.002;4.686;2023-07-13T09:02:42;101602.22;;;19.09;82.88
59337;BME280;45115;52.002;4.686;2023-07-13T09:05:14;101599.25;;;18.80;86.79
59337;BME280;45115;52.002;4.686;2023-07-13T09:08:01;101601.69;;;18.75;89.07
59337;BME280;45115;52.002;4.686;2023-07-13T09:10:31;101596.72;;;18.93;89.85
59337;BME280;45115;52.002;4.686;2023-07-13T09:13:11;101599.47;;;19.40;87.54
59337;BME280;45115;52.002;4.686;2023-07-13T09:15:43;101607.50;;;20.40;87.07
59337;BME280;45115;52.002;4.686;2023-07-13T09:18:14;101608.81;;;21.88;82.21
59337;BME280;45115;52.002;4.686;2023-07-13T09:20:48;101601.13;;;22.73;73.85
59337;BME280;45115;52.002;4.686;2023-07-13T09:23:19;101609.13;;;22.76;72.87
59337;BME280;45115;52.002;4.686;2023-07-13T09:25:48;101611.78;;;22.56;71.61
59337;BME280;45115;52.002;4.686;2023-07-13T09:28:20;101611.81;;;21.51;64.74
59337;BME280;45115;52.002;4.686;2023-07-13T09:30:52;101610.84;;;20.79;67.40
59337;BME280;45115;52.002;4.686;2023-07-13T09:33:21;101619.19;;;20.35;70.81
59337;BME280;45115;52.002;4.686;2023-07-13T09:35:48;101603.88;;;20.54;72.47
59337;BME280;45115;52.002;4.686;2023-07-13T09:38:16;101627.69;;;20.19;75.00
59337;BME280;45115;52.002;4.686;2023-07-13T09:40:54;101633.41;;;20.03;78.12
59337;BME280;45115;52.002;4.686;2023-07-13T09:43:26;101642.13;;;20.15;75.17
59337;BME280;45115;52.002;4.686;2023-07-13T09:45:55;101635.75;;;20.66;72.75
59337;BME280;45115;52.002;4.686;2023-07-13T09:48:22;101643.41;;;20.49;73.41
59337;BME280;45115;52.002;4.686;2023-07-13T09:50:54;101638.63;;;20.21;72.17
59337;BME280;45115;52.002;4.686;2023-07-13T09:53:21;101635.00;;;20.20;73.78
59337;BME280;45115;52.002;4.686;2023-07-13T09:55:49;101637.81;;;20.49;73.89
59337;BME280;45115;52.002;4.686;2023-07-13T09:58:17;101647.19;;;21.86;71.21
59337;BME280;45115;52.002;4.686;2023-07-13T10:00:54;101648.28;;;21.85;68.60
59337;BME280;45115;52.002;4.686;2023-07-13T10:03:24;101654.34;;;21.74;71.24
59337;BME280;45115;52.002;4.686;2023-07-13T10:05:52;101650.88;;;22.07;68.91
59337;BME280;45115;52.002;4.686;2023-07-13T10:08:23;101657.41;;;22.70;69.15
59337;BME280;45115;52.002;4.686;2023-07-13T10:10:57;101653.66;;;22.84;66.18
59337;BME280;45115;52.002;4.686;2023-07-13T10:13:27;101648.44;;;23.15;66.26
59337;BME280;45115;52.002;4.686;2023-07-13T10:15:58;101652.09;;;23.09;67.42
59337;BME280;45115;52.002;4.686;2023-07-13T10:18:28;101657.16;;;22.37;67.85
59337;BME280;45115;52.002;4.686;2023-07-13T10:21:10;101661.22;;;22.41;68.97
59337;BME280;45115;52.002;4.686;2023-07-13T10:23:37;101667.16;;;22.80;67.43
59337;BME280;45115;52.002;4.686;2023-07-13T10:26:10;101664.31;;;22.46;65.56
59337;BME280;45115;52.002;4.686;2023-07-13T10:28:40;101660.22;;;22.49;65.77
59337;BME280;45115;52.002;4.686;2023-07-13T10:31:14;101657.25;;;23.12;63.76
59337;BME280;45115;52.002;4.686;2023-07-13T10:33:42;101661.03;;;23.92;64.13
59337;BME280;45115;52.002;4.686;2023-07-13T10:36:16;101662.22;;;23.51;62.52
59337;BME280;45115;52.002;4.686;2023-07-13T10:38:43;101660.97;;;23.79;61.89
59337;BME280;45115;52.002;4.686;2023-07-13T10:41:16;101654.03;;;23.56;61.71
59337;BME280;45115;52.002;4.686;2023-07-13T10:43:47;101677.78;;;23.79;62.40
59337;BME280;45115;52.002;4.686;2023-07-13T10:46:19;101668.75;;;22.89;62.36
59337;BME280;45115;52.002;4.686;2023-07-13T10:48:55;101677.38;;;22.18;64.18
59337;BME280;45115;52.002;4.686;2023-07-13T10:51:23;101670.41;;;21.72;67.62
59337;BME280;45115;52.002;4.686;2023-07-13T10:54:11;101680.78;;;21.42;71.22
59337;BME280;45115;52.002;4.686;2023-07-13T10:56:39;101681.94;;;21.19;67.47
59337;BME280;45115;52.002;4.686;2023-07-13T10:59:12;101672.72;;;21.83;65.75
59337;BME280;45115;52.002;4.686;2023-07-13T11:01:50;101690.69;;;22.65;65.21
59337;BME280;45115;52.002;4.686;2023-07-13T11:04:18;101678.97;;;23.10;60.16
59337;BME280;45115;52.002;4.686;2023-07-13T11:06:49;101686.69;;;23.42;57.56
59337;BME280;45115;52.002;4.686;2023-07-13T11:09:37;101677.22;;;23.43;57.08
59337;BME280;45115;52.002;4.686;2023-07-13T11:12:09;101678.91;;;23.38;58.36
59337;BME280;45115;52.002;4.686;2023-07-13T11:14:44;101684.16;;;23.60;59.18
59337;BME280;45115;52.002;4.686;2023-07-13T11:17:38;101678.22;;;23.83;57.01
59337;BME280;45115;52.002;4.686;2023-07-13T11:20:31;101678.09;;;23.09;55.27
59337;BME280;45115;52.002;4.686;2023-07-13T11:23:28;101680.84;;;23.03;55.08
59337;BME280;45115;52.002;4.686;2023-07-13T11:25:56;101687.63;;;23.21;57.99
59337;BME280;45115;52.002;4.686;2023-07-13T11:28:27;101678.03;;;22.96;56.85
59337;BME280;45115;52.002;4.686;2023-07-13T11:31:02;101685.19;;;23.05;56.86
59337;BME280;45115;52.002;4.686;2023-07-13T11:33:50;101685.69;;;23.56;55.87
59337;BME280;45115;52.002;4.686;2023-07-13T11:36:19;101678.03;;;23.84;53.28
59337;BME280;45115;52.002;4.686;2023-07-13T11:38:56;101691.94;;;23.65;52.85
59337;BME280;45115;52.002;4.686;2023-07-13T11:41:28;101690.53;;;23.41;53.47
59337;BME280;45115;52.002;4.686;2023-07-13T11:44:06;101682.38;;;23.05;52.77
59337;BME280;45115;52.002;4.686;2023-07-13T11:46:34;101694.34;;;22.93;54.61
59337;BME280;45115;52.002;4.686;2023-07-13T11:49:04;101685.25;;;23.25;53.97
59337;BME280;45115;52.002;4.686;2023-07-13T11:51:34;101697.69;;;23.50;53.17
59337;BME280;45115;52.002;4.686;2023-07-13T11:54:04;101684.44;;;23.65;53.03
59337;BME280;45115;52.002;4.686;2023-07-13T11:56:32;101696.44;;;24.26;53.46
59337;BME280;45115;52.002;4.686;2023-07-13T11:59:05;101699.25;;;24.33;53.83
59337;BME280;45115;52.002;4.686;2023-07-13T12:01:33;101683.94;;;24.09;50.48
59337;BME280;45115;52.002;4.686;2023-07-13T12:04:04;101699.25;;;24.33;51.27
59337;BME280;45115;52.002;4.686;2023-07-13T12:06:33;101700.75;;;24.35;51.80
59337;BME280;45115;52.002;4.686;2023-07-13T12:09:10;101707.22;;;24.29;51.40
59337;BME280;45115;52.002;4.686;2023-07-13T12:11:40;101709.31;;;24.01;51.24
59337;BME280;45115;52.002;4.686;2023-07-13T12:14:13;101697.31;;;24.40;52.53
59337;BME280;45115;52.002;4.686;2023-07-13T12:16:41;101692.56;;;24.27;52.40
59337;BME280;45115;52.002;4.686;2023-07-13T12:19:17;101695.16;;;24.48;50.40
59337;BME280;45115;52.002;4.686;2023-07-13T12:21:45;101691.91;;;24.12;50.38
59337;BME280;45115;52.002;4.686;2023-07-13T12:24:17;101706.59;;;24.47;51.41
59337;BME280;45115;52.002;4.686;2023-07-13T12:26:44;101694.72;;;24.51;50.94
59337;BME280;45115;52.002;4.686;2023-07-13T12:29:17;101690.13;;;23.98;51.04
59337;BME280;45115;52.002;4.686;2023-07-13T12:31:45;101695.75;;;24.11;51.10
59337;BME280;45115;52.002;4.686;2023-07-13T12:34:15;101699.00;;;24.14;50.07
59337;BME280;45115;52.002;4.686;2023-07-13T12:36:47;101695.88;;;23.83;50.21
59337;BME280;45115;52.002;4.686;2023-07-13T12:39:17;101704.78;;;24.00;51.36
59337;BME280;45115;52.002;4.686;2023-07-13T12:41:46;101702.66;;;24.02;49.38
59337;BME280;45115;52.002;4.686;2023-07-13T12:44:16;101688.44;;;24.10;50.58
59337;BME280;45115;52.002;4.686;2023-07-13T12:46:55;101686.53;;;24.50;52.03
59337;BME280;45115;52.002;4.686;2023-07-13T12:49:28;101698.38;;;24.19;49.27
59337;BME280;45115;52.002;4.686;2023-07-13T12:51:59;101700.16;;;23.73;48.24
59337;BME280;45115;52.002;4.686;2023-07-13T12:54:27;101699.47;;;23.23;51.44
59337;BME280;45115;52.002;4.686;2023-07-13T12:56:56;101703.75;;;23.60;50.77
59337;BME280;45115;52.002;4.686;2023-07-13T12:59:30;101704.78;;;24.00;49.43
59337;BME280;45115;52.002;4.686;2023-07-13T13:01:59;101704.84;;;24.39;49.92
59337;BME280;45115;52.002;4.686;2023-07-13T13:04:27;101700.50;;;24.30;48.89
59337;BME280;45115;52.002;4.686;2023-07-13T13:07:02;101709.56;;;24.12;50.47
59337;BME280;45115;52.002;4.686;2023-07-13T13:09:29;101709.97;;;24.03;51.42
59337;BME280;45115;52.002;4.686;2023-07-13T13:11:56;101704.16;;;24.11;49.62
59337;BME280;45115;52.002;4.686;2023-07-13T13:14:23;101715.78;;;24.14;50.85
59337;BME280;45115;52.002;4.686;2023-07-13T13:16:51;101719.81;;;23.92;48.77
59337;BME280;45115;52.002;4.686;2023-07-13T13:19:21;101711.06;;;24.15;49.25
59337;BME280;45115;52.002;4.686;2023-07-13T13:21:51;101721.00;;;24.37;49.06
59337;BME280;45115;52.002;4.686;2023-07-13T13:24:20;101713.47;;;24.38;49.57
59337;BME280;45115;52.002;4.686;2023-07-13T13:26:47;101707.06;;;24.70;47.89
59337;BME280;45115;52.002;4.686;2023-07-13T13:29:17;101716.47;;;24.69;47.04
59337;BME280;45115;52.002;4.686;2023-07-13T13:31:45;101715.84;;;24.86;48.97
59337;BME280;45115;52.002;4.686;2023-07-13T13:34:14;101713.38;;;25.35;48.34
59337;BME280;45115;52.002;4.686;2023-07-13T13:36:42;101712.41;;;25.10;47.60
59337;BME280;45115;52.002;4.686;2023-07-13T13:39:20;101712.78;;;25.40;48.53
59337;BME280;45115;52.002;4.686;2023-07-13T13:41:48;101718.25;;;24.89;47.37
59337;BME280;45115;52.002;4.686;2023-07-13T13:44:16;101718.47;;;24.75;47.35
59337;BME280;45115;52.002;4.686;2023-07-13T13:46:45;101724.94;;;24.82;47.24
59337;BME280;45115;52.002;4.686;2023-07-13T13:49:15;101718.84;;;24.65;47.29
59337;BME280;45115;52.002;4.686;2023-07-13T13:51:43;101719.97;;;24.71;47.15
59337;BME280;45115;52.002;4.686;2023-07-13T13:54:12;101724.28;;;24.86;45.70
59337;BME280;45115;52.002;4.686;2023-07-13T13:56:43;101714.72;;;25.20;46.58
59337;BME280;45115;52.002;4.686;2023-07-13T13:59:10;101710.66;;;25.09;45.21
59337;BME280;45115;52.002;4.686;2023-07-13T14:01:37;101721.47;;;24.67;44.39
59337;BME280;45115;52.002;4.686;2023-07-13T14:04:05;101720.84;;;24.78;46.58
59337;BME280;45115;52.002;4.686;2023-07-13T14:06:33;101729.63;;;24.55;45.61
59337;BME280;45115;52.002;4.686;2023-07-13T14:09:01;101725.75;;;24.43;45.89
59337;BME280;45115;52.002;4.686;2023-07-13T14:11:29;101715.19;;;24.32;45.24
59337;BME280;45115;52.002;4.686;2023-07-13T14:14:00;101719.72;;;24.59;45.43
59337;BME280;45115;52.002;4.686;2023-07-13T14:16:31;101716.53;;;24.82;46.49
59337;BME280;45115;52.002;4.686;2023-07-13T14:18:59;101718.91;;;24.78;47.77
59337;BME280;45115;52.002;4.686;2023-07-13T14:21:28;101715.41;;;25.02;46.38
59337;BME280;45115;52.002;4.686;2023-07-13T14:23:55;101723.00;;;24.82;43.60
59337;BME280;45115;52.002;4.686;2023-07-13T14:26:24;101726.44;;;24.91;46.43
59337;BME280;45115;52.002;4.686;2023-07-13T14:28:53;101720.41;;;24.87;45.88
59337;BME280;45115;52.002;4.686;2023-07-13T14:31:23;101720.38;;;25.07;44.69
59337;BME280;45115;52.002;4.686;2023-07-13T14:33:50;101729.66;;;25.14;45.01
59337;BME280;45115;52.002;4.686;2023-07-13T14:36:26;101726.81;;;25.20;46.52
59337;BME280;45115;52.002;4.686;2023-07-13T14:38:55;101724.19;;;25.38;44.33
59337;BME280;45115;52.002;4.686;2023-07-13T14:41:22;101722.72;;;25.29;45.67
59337;BME280;45115;52.002;4.686;2023-07-13T14:43:49;101726.19;;;25.12;45.21
59337;BME280;45115;52.002;4.686;2023-07-13T14:46:28;101728.16;;;24.92;45.59
59337;BME280;45115;52.002;4.686;2023-07-13T14:49:00;101729.22;;;25.04;46.19
59337;BME280;45115;52.002;4.686;2023-07-13T14:51:28;101731.38;;;24.95;46.13
59337;BME280;45115;52.002;4.686;2023-07-13T14:53:55;101720.84;;;24.91;44.27
59337;BME280;45115;52.002;4.686;2023-07-13T14:56:22;101725.78;;;24.89;44.86
59337;BME280;45115;52.002;4.686;2023-07-13T14:58:49;101727.94;;;24.74;46.20
59337;BME280;45115;52.002;4.686;2023-07-13T15:01:16;101732.25;;;24.96;47.07
59337;BME280;45115;52.002;4.686;2023-07-13T15:03:48;101727.94;;;25.06;45.65
59337;BME280;45115;52.002;4.686;2023-07-13T15:06:17;101725.38;;;24.85;46.02
59337;BME280;45115;52.002;4.686;2023-07-13T15:08:45;101727.28;;;24.98;46.21
59337;BME280;45115;52.002;4.686;2023-07-13T15:11:13;101729.22;;;24.97;46.35
59337;BME280;45115;52.002;4.686;2023-07-13T15:13:40;101725.31;;;25.11;45.46
59337;BME280;45115;52.002;4.686;2023-07-13T15:16:15;101738.53;;;24.78;47.35
59337;BME280;45115;52.002;4.686;2023-07-13T15:18:45;101733.31;;;24.88;47.35
59337;BME280;45115;52.002;4.686;2023-07-13T15:21:15;101725.56;;;24.97;47.00
59337;BME280;45115;52.002;4.686;2023-07-13T15:23:44;101733.75;;;25.11;47.90
59337;BME280;45115;52.002;4.686;2023-07-13T15:26:19;101731.84;;;24.73;48.16
59337;BME280;45115;52.002;4.686;2023-07-13T15:28:46;101730.28;;;24.57;47.19
59337;BME280;45115;52.002;4.686;2023-07-13T15:31:21;101730.06;;;24.65;46.58
59337;BME280;45115;52.002;4.686;2023-07-13T15:33:50;101733.50;;;24.28;47.66
59337;BME280;45115;52.002;4.686;2023-07-13T15:36:18;101738.03;;;24.62;46.98
59337;BME280;45115;52.002;4.686;2023-07-13T15:38:47;101734.38;;;24.48;49.02
59337;BME280;45115;52.002;4.686;2023-07-13T15:41:17;101728.34;;;24.51;47.22
59337;BME280;45115;52.002;4.686;2023-07-13T15:43:45;101732.44;;;24.49;47.32
59337;BME280;45115;52.002;4.686;2023-07-13T15:46:12;101725.31;;;24.33;48.98
59337;BME280;45115;52.002;4.686;2023-07-13T15:48:39;101725.97;;;24.42;48.38
59337;BME280;45115;52.002;4.686;2023-07-13T15:51:12;101725.09;;;24.35;50.37
59337;BME280;45115;52.002;4.686;2023-07-13T15:53:41;101727.91;;;24.48;49.77
59337;BME280;45115;52.002;4.686;2023-07-13T15:56:18;101725.09;;;24.41;50.17
59337;BME280;45115;52.002;4.686;2023-07-13T15:58:46;101725.72;;;24.30;49.77
59337;BME280;45115;52.002;4.686;2023-07-13T16:01:13;101735.81;;;24.05;50.88
59337;BME280;45115;52.002;4.686;2023-07-13T16:03:40;101736.06;;;23.69;50.75
59337;BME280;45115;52.002;4.686;2023-07-13T16:06:21;101737.72;;;23.51;50.90
59337;BME280;45115;52.002;4.686;2023-07-13T16:08:49;101733.09;;;23.30;50.86
59337;BME280;45115;52.002;4.686;2023-07-13T16:11:20;101745.06;;;23.24;52.33
59337;BME280;45115;52.002;4.686;2023-07-13T16:13:47;101734.88;;;23.10;53.72
59337;BME280;45115;52.002;4.686;2023-07-13T16:16:22;101738.38;;;22.91;54.14
59337;BME280;45115;52.002;4.686;2023-07-13T16:18:52;101737.34;;;22.71;55.13
59337;BME280;45115;52.002;4.686;2023-07-13T16:21:24;101732.13;;;22.89;55.42
59337;BME280;45115;52.002;4.686;2023-07-13T16:23:53;101737.31;;;22.92;55.42
59337;BME280;45115;52.002;4.686;2023-07-13T16:26:28;101745.88;;;22.63;55.06
59337;BME280;45115;52.002;4.686;2023-07-13T16:29:10;101747.78;;;22.41;57.19
59337;BME280;45115;52.002;4.686;2023-07-13T16:31:37;101745.94;;;22.48;57.18
59337;BME280;45115;52.002;4.686;2023-07-13T16:34:04;101748.69;;;22.63;57.07
59337;BME280;45115;52.002;4.686;2023-07-13T16:36:36;101734.59;;;22.50;56.77
59337;BME280;45115;52.002;4.686;2023-07-13T16:39:11;101747.69;;;22.49;56.50
59337;BME280;45115;52.002;4.686;2023-07-13T16:41:38;101748.16;;;22.32;57.36
59337;BME280;45115;52.002;4.686;2023-07-13T16:44:10;101743.91;;;22.14;58.57
59337;BME280;45115;52.002;4.686;2023-07-13T16:46:37;101734.13;;;22.25;57.72
59337;BME280;45115;52.002;4.686;2023-07-13T16:49:04;101746.59;;;22.29;57.11
59337;BME280;45115;52.002;4.686;2023-07-13T16:51:32;101740.75;;;22.24;54.92
59337;BME280;45115;52.002;4.686;2023-07-13T16:54:00;101734.91;;;21.98;55.35
59337;BME280;45115;52.002;4.686;2023-07-13T16:56:27;101740.81;;;21.88;56.18
59337;BME280;45115;52.002;4.686;2023-07-13T16:58:54;101736.94;;;21.89;57.57
59337;BME280;45115;52.002;4.686;2023-07-13T17:01:21;101743.19;;;21.77;57.56
59337;BME280;45115;52.002;4.686;2023-07-13T17:03:48;101746.78;;;21.71;57.79
59337;BME280;45115;52.002;4.686;2023-07-13T17:06:24;101745.31;;;21.75;58.37
59337;BME280;45115;52.002;4.686;2023-07-13T17:08:53;101747.34;;;21.66;57.90
59337;BME280;45115;52.002;4.686;2023-07-13T17:11:22;101744.47;;;21.74;58.71
59337;BME280;45115;52.002;4.686;2023-07-13T17:13:53;101741.50;;;21.61;59.32
59337;BME280;45115;52.002;4.686;2023-07-13T17:16:20;101742.69;;;21.38;60.23
59337;BME280;45115;52.002;4.686;2023-07-13T17:18:50;101739.72;;;21.39;60.33
59337;BME280;45115;52.002;4.686;2023-07-13T17:21:17;101740.38;;;21.27;60.16
59337;BME280;45115;52.002;4.686;2023-07-13T17:23:44;101739.31;;;21.28;60.89
59337;BME280;45115;52.002;4.686;2023-07-13T17:26:12;101733.94;;;21.26;60.65
59337;BME280;45115;52.002;4.686;2023-07-13T17:28:41;101742.09;;;21.28;61.90
59337;BME280;45115;52.002;4.686;2023-07-13T17:31:12;101734.53;;;21.22;60.71
59337;BME280;45115;52.002;4.686;2023-07-13T17:33:44;101733.94;;;21.26;60.85
59337;BME280;45115;52.002;4.686;2023-07-13T17:36:14;101732.97;;;21.19;61.41
59337;BME280;45115;52.002;4.686;2023-07-13T17:38:43;101731.47;;;21.17;61.50
59337;BME280;45115;52.002;4.686;2023-07-13T17:41:13;101740.78;;;21.24;62.72
59337;BME280;45115;52.002;4.686;2023-07-13T17:43:42;101733.75;;;21.28;62.43
59337;BME280;45115;52.002;4.686;2023-07-13T17:46:11;101738.28;;;21.29;61.55
59337;BME280;45115;52.002;4.686;2023-07-13T17:48:40;101732.50;;;21.30;61.14
59337;BME280;45115;52.002;4.686;2023-07-13T17:51:09;101734.53;;;21.22;61.19
59337;BME280;45115;52.002;4.686;2023-07-13T17:53:35;101731.81;;;21.14;60.72
59337;BME280;45115;52.002;4.686;2023-07-13T17:56:03;101739.06;;;21.08;60.00
59337;BME280;45115;52.002;4.686;2023-07-13T17:58:30;101744.69;;;21.00;60.98
59337;BME280;45115;52.002;4.686;2023-07-13T18:01:02;101744.50;;;21.01;62.05
59337;BME280;45115;52.002;4.686;2023-07-13T18:03:30;101739.81;;;21.02;60.66
59337;BME280;45115;52.002;4.686;2023-07-13T18:06:08;101747.09;;;21.03;61.42
59337;BME280;45115;52.002;4.686;2023-07-13T18:08:45;101741.50;;;20.88;61.36
59337;BME280;45115;52.002;4.686;2023-07-13T18:11:12;101745.44;;;20.94;61.47
59337;BME280;45115;52.002;4.686;2023-07-13T18:13:40;101749.16;;;20.86;62.47
59337;BME280;45115;52.002;4.686;2023-07-13T18:16:14;101744.16;;;20.82;62.46
59337;BME280;45115;52.002;4.686;2023-07-13T18:18:43;101743.94;;;20.69;64.07
59337;BME280;45115;52.002;4.686;2023-07-13T18:21:12;101745.94;;;20.60;63.70
59337;BME280;45115;52.002;4.686;2023-07-13T18:23:42;101757.09;;;20.60;64.51
59337;BME280;45115;52.002;4.686;2023-07-13T18:26:10;101749.47;;;20.54;64.78
59337;BME280;45115;52.002;4.686;2023-07-13T18:28:37;101754.25;;;20.46;64.81
59337;BME280;45115;52.002;4.686;2023-07-13T18:31:08;101751.34;;;20.39;64.80
59337;BME280;45115;52.002;4.686;2023-07-13T18:33:38;101759.22;;;20.36;65.90
59337;BME280;45115;52.002;4.686;2023-07-13T18:36:11;101759.81;;;20.23;66.05